TAF EHQE
METAR EHQE
EHQE 090625Z AUTO 24016KT 8000 -RADZ FEW012 FEW015CB SCT016 BKN024 07/05 Q0998=
EHQE 090555Z AUTO 23016KT 9999 -DZ FEW012 FEW015CB SCT016 BKN021 08/04 Q0998=
EHQE 090525Z AUTO 23015KT 9999 FEW006 BKN015CB BKN019 08/04 Q0998=
EHQE 090455Z AUTO 22013KT 5000 -SHRA FEW006 FEW015CB SCT016 BKN025 07/04 Q0998 RERA=
EHQE 090425Z AUTO 20018KT 9999 -RA FEW016CB SCT027 BKN038 08/04 Q0997=
WC EHQE
WS EHQE
WV EHQE